Latest Weather Observations for Miles

IDQ60801

Issued at 12:05 pm EST Sunday 31 August 2014 (issued every 30 minutes, with the page automatically refreshed every 10 minutes)

About weather observations | Map of weather stations | Latest weather observations for QLD | Other Formats
Station Details ID: 042112 Name: MILES CONSTANCE STREET Lat: -26.66 Lon: 150.18 Height: 304.8 m
Data from the previous 72 hours. | See also: Recent months at Miles
Date/Time
EST
Temp
°C
App
Temp
°C
Dew
Point
Rel
Hum
%
Delta-T
°C
Wind Press
QNH
hPa
Press
MSL
hPa
Rain
since 9 am
mm
Dir
 
Spd
km/h
Gust
km/h
Spd
kts
Gust
kts
31/12:00pm 21.8 19.2 4.4 32 8.6 SSW 7 13 4 7 1018.8 1018.7 0.0
31/11:30am 21.5 19.1 4.2 32 8.5 NW 6 11 3 6 1019.3 - 0.0
31/11:00am 20.9 19.3 6.4 39 7.4 ESE 4 9 2 5 1019.7 - 0.0
31/10:30am 20.1 18.5 6.3 40 7.0 E 4 7 2 4 1020.3 - 0.0
31/10:00am 19.0 17.2 7.1 46 6.1 NW 6 11 3 6 1020.7 - 0.0
31/09:30am 17.8 15.8 6.4 47 5.7 S 6 9 3 5 1020.9 - 0.0
31/09:00am 15.5 14.3 6.3 54 4.5 W 2 7 1 4 1021.1 1020.9 0.0
31/08:30am 13.3 12.1 4.5 55 4.1 CALM 0 2 0 1 1021.2 - 0.0
31/08:00am 10.6 8.4 3.4 61 3.2 NNW 4 7 2 4 1021.1 - 0.0
31/07:30am 7.5 4.4 1.4 65 2.5 N 7 9 4 5 1020.9 - 0.0
31/07:00am 4.7 3.1 2.2 84 1.0 CALM 0 0 0 0 1020.4 - 0.0
31/06:30am 2.9 1.2 1.6 91 0.5 CALM 0 0 0 0 1020.0 - 0.0
31/06:00am 2.7 1.0 1.7 93 0.4 CALM 0 0 0 0 1019.6 1019.5 0.0
31/05:30am 3.0 1.3 1.7 91 0.5 CALM 0 0 0 0 1019.6 - 0.0
31/05:00am 3.4 1.7 1.6 88 0.7 CALM 0 0 0 0 1019.5 - 0.0
31/04:30am 3.6 1.9 2.1 90 0.6 CALM 0 0 0 0 1019.4 - 0.0
31/04:00am 3.8 2.1 2.1 89 0.7 CALM 0 0 0 0 1019.3 - 0.0
31/03:30am 4.0 2.3 2.0 87 0.8 CALM 0 0 0 0 1019.3 - 0.0
31/03:00am 4.3 2.6 1.8 84 1.0 CALM 0 0 0 0 1019.4 1019.3 0.0
31/02:30am 4.5 2.8 1.8 83 1.1 CALM 0 0 0 0 1019.6 - 0.0
31/02:00am 4.8 3.1 1.8 81 1.2 CALM 0 0 0 0 1019.6 - 0.0
31/01:30am 5.1 3.4 1.9 80 1.3 CALM 0 0 0 0 1019.8 - 0.0
31/01:00am 5.2 3.5 2.0 80 1.3 CALM 0 0 0 0 1019.9 - 0.0
31/12:30am 5.8 4.1 1.6 74 1.7 CALM 0 0 0 0 1020.0 - 0.0
31/12:00am 6.0 4.3 2.1 76 1.6 NNW 0 0 0 0 1020.0 1019.9 0.0
 
Date/Time
EST
Temp
°C
App
Temp
°C
Dew
Point
Rel
Hum
%
Delta-T
°C
Wind Press
QNH
hPa
Press
MSL
hPa
Rain
since 9 am
mm
Dir
 
Spd
km/h
Gust
km/h
Spd
kts
Gust
kts
30/11:30pm 6.4 4.8 2.3 75 1.7 CALM 0 0 0 0 1020.1 - 0.0
30/11:00pm 6.7 5.1 2.7 75 1.7 CALM 0 0 0 0 1020.2 - 0.0
30/10:30pm 7.1 5.5 2.3 71 2.0 CALM 0 0 0 0 1020.2 - 0.0
30/10:00pm 7.5 5.8 2.0 68 2.3 CALM 0 0 0 0 1020.3 - 0.0
30/09:30pm 8.2 6.5 1.7 63 2.7 CALM 0 0 0 0 1020.3 - 0.0
30/09:00pm 9.0 7.3 1.9 61 3.0 CALM 0 0 0 0 1020.4 1020.3 0.0
30/08:30pm 9.8 8.1 2.1 58 3.3 CALM 0 0 0 0 1020.3 - 0.0
30/08:00pm 10.6 9.3 3.9 63 3.0 CALM 0 0 0 0 1020.1 - 0.0
30/07:30pm 12.1 10.9 4.8 61 3.4 CALM 0 0 0 0 1019.9 - 0.0
30/07:00pm 13.6 12.3 4.1 52 4.4 CALM 0 0 0 0 1019.5 - 0.0
30/06:30pm 16.6 13.3 -1.4 29 7.6 SSW 6 7 3 4 1019.1 - 0.0
30/06:00pm 18.3 14.7 -2.4 24 8.7 S 7 13 4 7 1019.0 1018.9 0.0
30/05:30pm 19.7 15.1 -3.7 20 9.7 S 11 19 6 10 1018.8 - 0.0
30/05:00pm 20.6 15.7 -3.4 19 10.1 S 13 19 7 10 1018.5 - 0.0
30/04:30pm 21.2 15.1 -4.3 17 10.6 SSW 19 32 10 17 1018.5 - 0.0
30/04:00pm 21.6 16.1 -5.8 15 11.1 SSW 15 24 8 13 1018.5 - 0.0
30/03:30pm 21.4 15.6 -4.8 17 10.8 SSW 17 30 9 16 1018.6 - 0.0
30/03:00pm 21.7 16.0 -4.0 17 10.8 WSW 17 26 9 14 1018.7 1018.6 0.0
30/02:30pm 21.2 15.4 -4.8 17 10.7 SSW 17 26 9 14 1019.0 - 0.0
30/02:00pm 21.4 15.3 -3.8 18 10.6 S 19 28 10 15 1019.2 - 0.0
30/01:30pm 21.0 15.4 -2.5 20 10.1 S 17 30 9 16 1019.5 - 0.0
30/01:00pm 21.0 15.6 -1.7 21 9.9 S 17 28 9 15 1020.3 - 0.0
30/12:30pm 19.7 14.3 -1.6 23 9.2 SW 17 28 9 15 1020.7 - 0.0
30/12:00pm 19.2 14.4 0.1 27 8.5 S 15 26 8 14 1021.2 1021.0 0.0
30/11:30am 19.1 13.9 0.3 28 8.4 S 17 30 9 16 1021.8 - 0.0
30/11:00am 18.0 12.4 0.1 30 7.9 S 19 28 10 15 1022.4 - 0.0
30/10:30am 17.7 12.2 0.9 32 7.5 S 19 30 10 16 1022.8 - 0.0
30/10:00am 17.0 12.1 2.0 36 6.8 SSE 17 26 9 14 1022.9 - 0.0
30/09:30am 16.4 11.9 2.3 38 6.4 S 15 24 8 13 1023.1 - 0.0
30/09:00am 15.0 11.0 2.6 43 5.6 S 13 22 7 12 1023.3 1023.2 0.0
30/08:30am 13.1 10.0 3.4 51 4.4 S 9 15 5 8 1023.3 - 0.0
30/08:00am 10.4 7.9 3.9 64 2.9 S 6 11 3 6 1023.3 - 0.0
30/07:30am 6.9 5.3 2.6 74 1.8 CALM 0 0 0 0 1023.2 - 0.0
30/07:00am 3.3 1.5 1.5 88 0.7 CALM 0 0 0 0 1023.1 - 0.0
30/06:30am 1.6 -0.3 0.8 94 0.3 CALM 0 0 0 0 1022.6 - 0.0
30/06:00am 1.7 -0.1 0.9 94 0.3 CALM 0 0 0 0 1022.2 1022.1 0.0
30/05:30am 1.8 0.0 1.3 96 0.2 CALM 0 0 0 0 1021.9 - 0.0
30/05:00am 2.0 0.2 1.5 96 0.2 CALM 0 0 0 0 1021.6 - 0.0
30/04:30am 2.2 0.4 1.2 93 0.4 CALM 0 0 0 0 1021.6 - 0.0
30/04:00am 2.4 0.6 1.4 93 0.4 CALM 0 0 0 0 1021.5 - 0.0
30/03:30am 2.7 1.0 1.7 93 0.4 CALM 0 0 0 0 1021.5 - 0.0
30/03:00am 3.2 1.5 1.9 91 0.5 CALM 0 0 0 0 1021.6 1021.5 0.0
30/02:30am 3.4 1.8 2.2 92 0.5 CALM 0 0 0 0 1021.8 - 0.0
30/02:00am 3.7 2.1 2.2 90 0.6 CALM 0 0 0 0 1022.0 - 0.0
30/01:30am 4.2 2.5 1.7 84 1.0 CALM 0 0 0 0 1022.1 - 0.0
30/01:00am 4.4 2.8 2.4 87 0.8 CALM 0 0 0 0 1022.4 - 0.0
30/12:30am 5.0 3.4 2.3 83 1.1 CALM 0 0 0 0 1022.6 - 0.0
30/12:00am 5.8 4.2 2.2 78 1.5 CALM 0 0 0 0 1022.7 1022.6 0.0
 
Date/Time
EST
Temp
°C
App
Temp
°C
Dew
Point
Rel
Hum
%
Delta-T
°C
Wind Press
QNH
hPa
Press
MSL
hPa
Rain
since 9 am
mm
Dir
 
Spd
km/h
Gust
km/h
Spd
kts
Gust
kts
29/11:30pm 6.3 4.7 2.7 78 1.5 CALM 0 0 0 0 1022.7 - 0.0
29/11:00pm 7.0 5.4 2.7 74 1.8 CALM 0 0 0 0 1022.7 - 0.0
29/10:30pm 7.8 5.2 3.1 72 2.0 S 6 7 3 4 1022.7 - 0.0
29/10:00pm 8.4 7.0 3.6 72 2.1 CALM 0 7 0 4 1022.6 - 0.0
29/09:30pm 9.9 8.4 2.8 61 3.1 CALM 0 0 0 0 1022.5 - 0.0
29/09:00pm 10.4 9.1 4.2 65 2.8 CALM 0 0 0 0 1022.6 1022.5 0.0
29/08:30pm 11.7 10.6 5.3 65 3.0 CALM 0 0 0 0 1022.5 - 0.0
29/08:00pm 14.3 11.0 -0.1 37 6.1 S 7 9 4 5 1022.2 - 0.0
29/07:30pm 15.3 11.9 -0.5 34 6.7 S 7 11 4 6 1022.1 - 0.0
29/07:00pm 16.3 12.9 -0.9 31 7.3 SSW 7 11 4 6 1022.0 - 0.0
29/06:30pm 17.1 13.3 -0.9 29 7.7 SSW 9 11 5 6 1021.8 - 0.0
29/06:00pm 18.3 14.1 -0.8 27 8.3 SSW 11 19 6 10 1021.5 1021.4 0.0
29/05:30pm 19.3 14.7 -1.2 25 8.9 SSW 13 19 7 10 1021.3 - 0.0
29/05:00pm 20.3 15.4 -0.7 24 9.3 SSW 15 26 8 14 1021.0 - 0.0
29/04:30pm 21.0 16.0 -1.2 22 9.8 SW 15 22 8 12 1020.7 - 0.0
29/04:00pm 21.6 16.7 -0.4 23 9.9 SW 15 22 8 12 1020.6 - 0.0
29/03:30pm 21.7 17.4 0.9 25 9.6 SW 13 26 7 14 1020.6 - 0.0
29/03:00pm 21.3 16.7 1.6 27 9.2 SSW 15 20 8 11 1020.5 1020.4 0.0
29/02:30pm 21.9 17.8 2.4 27 9.3 SSW 13 24 7 13 1020.7 - 0.0
29/02:00pm 21.9 17.9 2.7 28 9.2 S 13 24 7 13 1020.9 - 0.0
29/01:30pm 21.4 17.8 2.8 29 8.9 SSW 11 24 6 13 1021.4 - 0.0
29/01:00pm 21.5 17.3 1.9 27 9.2 S 13 26 7 14 1021.8 - 0.0
29/12:30pm 21.1 17.1 2.6 29 8.8 SSE 13 24 7 13 1022.4 - 0.0
29/12:00pm 20.8 16.6 3.6 32 8.3 S 15 22 8 12 1023.0 1022.9 0.0
29/11:30am 20.0 17.2 5.3 38 7.3 S 9 17 5 9 1023.5 - 0.0
29/11:00am 19.0 16.3 5.4 41 6.7 ESE 9 15 5 8 1024.0 - 0.0
29/10:30am 18.9 16.7 6.1 43 6.4 ESE 7 11 4 6 1024.4 - 0.0
29/10:00am 17.4 15.0 6.9 50 5.3 E 9 15 5 8 1024.6 - 0.0
29/09:30am 16.8 14.0 7.0 52 4.9 SSE 11 15 6 8 1024.7 - 0.0
29/09:00am 15.0 13.3 7.4 60 3.8 ESE 6 11 3 6 1024.8 1024.7 0.0
29/08:30am 13.1 12.2 7.7 70 2.7 S 2 9 1 5 1024.8 - 0.0
29/08:00am 10.4 9.9 7.7 83 1.3 CALM 0 0 0 0 1024.7 - 0.0
29/07:30am 7.8 7.0 6.5 91 0.6 CALM 0 0 0 0 1024.4 - 0.0
29/07:00am 5.7 4.5 4.8 94 0.4 CALM 0 0 0 0 1024.1 - 0.0
29/06:30am 4.8 3.5 4.3 97 0.2 CALM 0 0 0 0 1023.7 - 0.0
29/06:00am 4.8 3.5 4.1 95 0.3 CALM 0 0 0 0 1023.4 1023.3 0.0
29/05:30am 5.2 4.0 4.5 95 0.3 CALM 0 0 0 0 1023.1 - 0.0
29/05:00am 5.5 4.3 4.8 95 0.3 CALM 0 0 0 0 1022.9 - 0.0
29/04:30am 6.0 4.9 5.1 94 0.4 CALM 0 0 0 0 1022.6 - 0.0
29/04:00am 6.0 4.2 5.3 95 0.3 N 4 9 2 5 1022.3 - 0.0
29/03:30am 6.4 5.4 5.7 95 0.3 CALM 0 0 0 0 1022.4 - 0.0
29/03:00am 6.6 5.7 5.9 95 0.3 CALM 0 0 0 0 1022.3 1022.2 0.0
29/02:30am 7.0 6.1 6.1 94 0.4 CALM 0 0 0 0 1022.4 - 0.0
29/02:00am 7.3 6.5 6.4 94 0.4 CALM 0 0 0 0 1022.3 - 0.0
29/01:30am 7.9 7.1 6.6 91 0.6 CALM 0 0 0 0 1022.3 - 0.0
29/01:00am 8.3 7.5 6.6 89 0.8 CALM 0 0 0 0 1022.2 - 0.0
29/12:30am 8.5 7.8 6.8 89 0.8 CALM 0 0 0 0 1022.4 - 0.0
29/12:00am 9.1 8.5 7.2 88 0.9 CALM 0 0 0 0 1022.7 1022.6 0.0
 
Date/Time
EST
Temp
°C
App
Temp
°C
Dew
Point
Rel
Hum
%
Delta-T
°C
Wind Press
QNH
hPa
Press
MSL
hPa
Rain
since 9 am
mm
Dir
 
Spd
km/h
Gust
km/h
Spd
kts
Gust
kts
28/11:30pm 9.2 8.7 7.8 91 0.7 CALM 0 0 0 0 1022.7 - 0.0
28/11:00pm 9.8 9.3 7.7 87 1.0 CALM 0 0 0 0 1022.7 - 0.0
28/10:30pm 10.4 9.9 8.0 85 1.2 CALM 0 0 0 0 1022.5 - 0.0
28/10:00pm 11.2 10.8 8.4 83 1.4 CALM 0 0 0 0 1022.5 - 0.0
28/09:30pm 12.0 11.5 8.0 76 2.0 CALM 0 0 0 0 1022.6 - 0.0
28/09:00pm 13.0 12.3 8.7 75 2.2 SSW 2 6 1 3 1022.4 1022.3 0.0
28/08:30pm 14.6 12.6 7.1 60 3.7 SSW 7 11 4 6 1022.0 - 0.0
28/08:00pm 13.8 13.2 8.9 72 2.5 SSW 2 6 1 3 1022.0 - 0.0
28/07:30pm 14.9 14.9 9.8 71 2.7 CALM 0 0 0 0 1021.9 - 0.0
28/07:00pm 17.2 15.4 7.1 51 5.1 S 6 9 3 5 1021.5 - 0.0
28/06:30pm 18.0 16.0 6.9 48 5.6 SSW 7 11 4 6 1021.2 - 0.0
28/06:00pm 19.1 16.6 6.4 43 6.4 S 9 15 5 8 1020.9 1020.7 0.0
28/05:30pm 19.9 17.0 6.5 41 6.8 S 11 17 6 9 1020.6 - 0.0
28/05:00pm 20.5 17.5 6.1 39 7.3 S 11 22 6 12 1020.3 - 0.0
28/04:30pm 21.3 17.1 5.9 36 7.8 S 17 28 9 15 1020.0 - 0.0
28/04:00pm 21.3 17.1 5.7 36 7.9 S 17 24 9 13 1019.8 - 0.0
28/03:30pm 21.5 17.0 6.0 36 7.9 S 19 33 10 18 1019.5 - 0.0
28/03:00pm 21.3 16.9 6.5 38 7.6 S 19 30 10 16 1019.5 1019.4 0.0
28/02:30pm 22.0 17.6 6.7 37 7.9 SW 19 26 10 14 1019.3 - 0.0
28/02:00pm 21.4 17.8 6.9 39 7.5 S 15 28 8 15 1019.4 - 0.0
28/01:30pm 21.5 18.0 7.3 40 7.4 SSE 15 33 8 18 1019.6 - 0.0
28/01:00pm 20.7 16.9 7.4 42 6.9 S 17 28 9 15 1019.7 - 0.0
28/12:30pm 20.5 17.0 7.4 42 6.8 S 15 28 8 15 1020.0 - 0.0

Other Formats:

Comma delimited format used in spreadsheet applications
http://www.bom.gov.au/fwo/IDQ60801/IDQ60801.95529.axf

JavaScript Object Notation format (JSON) in row-major order
http://www.bom.gov.au/fwo/IDQ60801/IDQ60801.95529.json